sensor_id;sensor_type;location;lat;lon;timestamp;pressure;altitude;pressure_sealevel;temperature;humidity
68456;BME280;55437;55.046;38.838;2023-04-07T00:01:02;100760.22;;;4.79;47.28
68456;BME280;55437;55.046;38.838;2023-04-07T00:03:35;100757.63;;;4.73;47.38
68456;BME280;55437;55.046;38.838;2023-04-07T00:06:22;100756.75;;;4.69;47.70
68456;BME280;55437;55.046;38.838;2023-04-07T00:08:48;100755.88;;;4.66;47.72
68456;BME280;55437;55.046;38.838;2023-04-07T00:11:14;100753.28;;;4.60;48.00
68456;BME280;55437;55.046;38.838;2023-04-07T00:14:05;100749.88;;;4.56;48.07
68456;BME280;55437;55.046;38.838;2023-04-07T00:16:57;100755.81;;;4.57;48.04
68456;BME280;55437;55.046;38.838;2023-04-07T00:19:53;100753.28;;;4.55;47.91
68456;BME280;55437;55.046;38.838;2023-04-07T00:22:24;100754.97;;;4.55;47.86
68456;BME280;55437;55.046;38.838;2023-04-07T00:24:50;100754.97;;;4.55;48.04
68456;BME280;55437;55.046;38.838;2023-04-07T00:27:15;100757.44;;;4.46;48.18
68456;BME280;55437;55.046;38.838;2023-04-07T00:29:42;100762.50;;;4.47;48.11
68456;BME280;55437;55.046;38.838;2023-04-07T00:32:11;100753.16;;;4.42;48.46
68456;BME280;55437;55.046;38.838;2023-04-07T00:34:37;100755.66;;;4.35;48.42
68456;BME280;55437;55.046;38.838;2023-04-07T00:37:04;100748.88;;;4.34;48.59
68456;BME280;55437;55.046;38.838;2023-04-07T00:39:31;100753.84;;;4.24;48.96
68456;BME280;55437;55.046;38.838;2023-04-07T00:41:58;100755.56;;;4.22;48.85
68456;BME280;55437;55.046;38.838;2023-04-07T00:44:24;100757.22;;;4.23;48.79
68456;BME280;55437;55.046;38.838;2023-04-07T00:46:56;100760.63;;;4.23;48.85
68456;BME280;55437;55.046;38.838;2023-04-07T00:49:23;100755.53;;;4.20;48.58
68456;BME280;55437;55.046;38.838;2023-04-07T00:51:54;100756.41;;;4.24;48.59
68456;BME280;55437;55.046;38.838;2023-04-07T00:54:22;100758.94;;;4.22;48.70
68456;BME280;55437;55.046;38.838;2023-04-07T00:56:52;100758.91;;;4.18;48.83
68456;BME280;55437;55.046;38.838;2023-04-07T00:59:21;100753.81;;;4.16;48.90
68456;BME280;55437;55.046;38.838;2023-04-07T01:02:07;100757.16;;;4.12;49.02
68456;BME280;55437;55.046;38.838;2023-04-07T01:04:53;100757.16;;;4.12;48.88
68456;BME280;55437;55.046;38.838;2023-04-07T01:07:26;100763.91;;;4.09;49.05
68456;BME280;55437;55.046;38.838;2023-04-07T01:10:05;100767.19;;;4.00;49.47
68456;BME280;55437;55.046;38.838;2023-04-07T01:12:51;100764.66;;;3.97;49.63
68456;BME280;55437;55.046;38.838;2023-04-07T01:15:23;100762.81;;;3.87;49.70
68456;BME280;55437;55.046;38.838;2023-04-07T01:18:03;100767.91;;;3.85;49.63
68456;BME280;55437;55.046;38.838;2023-04-07T01:20:33;100762.00;;;3.86;49.90
68456;BME280;55437;55.046;38.838;2023-04-07T01:23:06;100764.44;;;3.79;50.40
68456;BME280;55437;55.046;38.838;2023-04-07T01:32:10;100762.78;;;3.81;50.11
68456;BME280;55437;55.046;38.838;2023-04-07T01:34:41;100769.59;;;3.83;50.44
68456;BME280;55437;55.046;38.838;2023-04-07T01:37:08;100758.53;;;3.80;50.50
68456;BME280;55437;55.046;38.838;2023-04-07T01:39:36;100769.47;;;3.73;50.78
68456;BME280;55437;55.046;38.838;2023-04-07T01:42:04;100764.38;;;3.71;51.07
68456;BME280;55437;55.046;38.838;2023-04-07T01:44:32;100766.94;;;3.73;50.81
68456;BME280;55437;55.046;38.838;2023-04-07T01:46:59;100767.72;;;3.67;51.35
68456;BME280;55437;55.046;38.838;2023-04-07T01:49:25;100766.00;;;3.66;51.23
68456;BME280;55437;55.046;38.838;2023-04-07T01:51:53;100771.03;;;3.60;51.67
68456;BME280;55437;55.046;38.838;2023-04-07T01:54:20;100766.75;;;3.56;51.77
68456;BME280;55437;55.046;38.838;2023-04-07T01:57:11;100767.53;;;3.49;51.71
68456;BME280;55437;55.046;38.838;2023-04-07T01:59:37;100770.06;;;3.50;51.95
68456;BME280;55437;55.046;38.838;2023-04-07T02:02:03;100763.28;;;3.48;52.01
68456;BME280;55437;55.046;38.838;2023-04-07T02:04:34;100763.22;;;3.43;52.09
68456;BME280;55437;55.046;38.838;2023-04-07T02:07:19;100770.81;;;3.43;52.12
68456;BME280;55437;55.046;38.838;2023-04-07T02:09:50;100771.63;;;3.39;52.62
68456;BME280;55437;55.046;38.838;2023-04-07T02:12:45;100768.25;;;3.40;52.25
68456;BME280;55437;55.046;38.838;2023-04-07T02:15:18;100771.59;;;3.36;52.56
68456;BME280;55437;55.046;38.838;2023-04-07T02:17:48;100768.13;;;3.30;53.00
68456;BME280;55437;55.046;38.838;2023-04-07T02:20:15;100773.16;;;3.28;52.97
68456;BME280;55437;55.046;38.838;2023-04-07T02:22:42;100772.28;;;3.26;53.02
68456;BME280;55437;55.046;38.838;2023-04-07T02:25:55;100774.00;;;3.24;52.77
68456;BME280;55437;55.046;38.838;2023-04-07T02:28:22;100777.38;;;3.24;52.92
68456;BME280;55437;55.046;38.838;2023-04-07T02:30:49;100783.25;;;3.22;53.29
68456;BME280;55437;55.046;38.838;2023-04-07T02:33:15;100773.97;;;3.22;53.50
68456;BME280;55437;55.046;38.838;2023-04-07T02:35:42;100776.47;;;3.21;53.34
68456;BME280;55437;55.046;38.838;2023-04-07T02:38:08;100776.53;;;3.24;53.22
68456;BME280;55437;55.046;38.838;2023-04-07T02:40:35;100783.22;;;3.20;53.47
68456;BME280;55437;55.046;38.838;2023-04-07T02:43:01;100778.19;;;3.22;53.39
68456;BME280;55437;55.046;38.838;2023-04-07T02:45:27;100786.50;;;3.12;53.55
68456;BME280;55437;55.046;38.838;2023-04-07T02:47:53;100785.69;;;3.16;53.54
68456;BME280;55437;55.046;38.838;2023-04-07T02:50:46;100785.69;;;3.13;53.88
68456;BME280;55437;55.046;38.838;2023-04-07T02:53:11;100786.56;;;3.16;53.40
68456;BME280;55437;55.046;38.838;2023-04-07T02:55:38;100785.78;;;3.20;53.73
68456;BME280;55437;55.046;38.838;2023-04-07T02:58:03;100797.69;;;3.28;53.81
68456;BME280;55437;55.046;38.838;2023-04-07T03:00:47;100801.13;;;3.31;53.66
68456;BME280;55437;55.046;38.838;2023-04-07T03:03:19;100805.50;;;3.41;53.22
68456;BME280;55437;55.046;38.838;2023-04-07T03:06:02;100803.19;;;3.59;53.02
68456;BME280;55437;55.046;38.838;2023-04-07T03:08:28;100797.34;;;3.68;53.15
68456;BME280;55437;55.046;38.838;2023-04-07T03:10:55;100807.81;;;3.94;52.48
68456;BME280;55437;55.046;38.838;2023-04-07T03:13:26;100798.81;;;4.28;51.46
68456;BME280;55437;55.046;38.838;2023-04-07T03:15:54;100795.53;;;4.41;51.32
68456;BME280;55437;55.046;38.838;2023-04-07T03:18:21;100811.75;;;4.55;50.99
68456;BME280;55437;55.046;38.838;2023-04-07T03:21:13;100802.63;;;4.82;50.47
68456;BME280;55437;55.046;38.838;2023-04-07T03:23:40;100807.88;;;5.06;49.85
68456;BME280;55437;55.046;38.838;2023-04-07T03:26:05;100809.75;;;5.39;49.08
68456;BME280;55437;55.046;38.838;2023-04-07T03:28:34;100808.06;;;5.42;48.92
68456;BME280;55437;55.046;38.838;2023-04-07T03:31:01;100802.91;;;5.33;48.81
68456;BME280;55437;55.046;38.838;2023-04-07T03:33:27;100813.09;;;5.32;49.07
68456;BME280;55437;55.046;38.838;2023-04-07T03:35:53;100809.78;;;5.47;48.75
68456;BME280;55437;55.046;38.838;2023-04-07T03:38:20;100806.47;;;5.67;48.36
68456;BME280;55437;55.046;38.838;2023-04-07T03:40:47;100815.94;;;6.02;47.72
68456;BME280;55437;55.046;38.838;2023-04-07T03:43:13;100817.69;;;6.24;47.09
68456;BME280;55437;55.046;38.838;2023-04-07T03:45:41;100817.69;;;6.41;46.62
68456;BME280;55437;55.046;38.838;2023-04-07T03:48:08;100823.66;;;6.37;46.65
68456;BME280;55437;55.046;38.838;2023-04-07T03:50:45;100819.41;;;6.37;46.72
68456;BME280;55437;55.046;38.838;2023-04-07T03:53:14;100827.03;;;6.80;46.17
68456;BME280;55437;55.046;38.838;2023-04-07T03:55:42;100820.22;;;6.96;45.70
68456;BME280;55437;55.046;38.838;2023-04-07T03:58:18;100831.28;;;7.07;45.42
68456;BME280;55437;55.046;38.838;2023-04-07T04:00:46;100835.53;;;7.03;45.29
68456;BME280;55437;55.046;38.838;2023-04-07T04:03:39;100829.59;;;6.69;45.45
68456;BME280;55437;55.046;38.838;2023-04-07T04:06:20;100834.69;;;6.68;45.62
68456;BME280;55437;55.046;38.838;2023-04-07T04:08:48;100824.50;;;6.86;45.27
68456;BME280;55437;55.046;38.838;2023-04-07T04:11:14;100827.00;;;7.24;44.87
68456;BME280;55437;55.046;38.838;2023-04-07T04:13:47;100837.06;;;7.65;44.12
68456;BME280;55437;55.046;38.838;2023-04-07T04:16:14;100831.19;;;7.48;43.78
68456;BME280;55437;55.046;38.838;2023-04-07T04:18:44;100840.41;;;7.78;43.53
68456;BME280;55437;55.046;38.838;2023-04-07T04:21:12;100843.81;;;7.74;43.59
68456;BME280;55437;55.046;38.838;2023-04-07T04:23:42;100840.38;;;7.85;43.26
68456;BME280;55437;55.046;38.838;2023-04-07T04:26:08;100840.41;;;7.76;43.36
68456;BME280;55437;55.046;38.838;2023-04-07T04:28:35;100845.56;;;7.69;43.39
68456;BME280;55437;55.046;38.838;2023-04-07T04:31:03;100838.81;;;7.51;43.65
68456;BME280;55437;55.046;38.838;2023-04-07T04:34:01;100848.06;;;7.81;43.34
68456;BME280;55437;55.046;38.838;2023-04-07T04:36:52;100848.13;;;7.66;43.49
68456;BME280;55437;55.046;38.838;2023-04-07T04:39:25;100849.13;;;7.22;44.27
68456;BME280;55437;55.046;38.838;2023-04-07T04:41:53;100847.41;;;7.32;44.05
68456;BME280;55437;55.046;38.838;2023-04-07T04:44:21;100857.53;;;7.61;43.75
68456;BME280;55437;55.046;38.838;2023-04-07T04:46:47;100859.94;;;7.94;43.44
68456;BME280;55437;55.046;38.838;2023-04-07T04:49:13;100861.53;;;8.18;42.77
68456;BME280;55437;55.046;38.838;2023-04-07T04:51:48;100849.28;;;8.62;42.14
68456;BME280;55437;55.046;38.838;2023-04-07T04:54:15;100868.59;;;9.05;41.61
68456;BME280;55437;55.046;38.838;2023-04-07T05:00:25;100862.31;;;9.31;41.03
68456;BME280;55437;55.046;38.838;2023-04-07T05:02:58;100869.09;;;9.40;41.01
68456;BME280;55437;55.046;38.838;2023-04-07T05:05:50;100870.09;;;9.24;41.13
68456;BME280;55437;55.046;38.838;2023-04-07T05:08:20;100870.41;;;9.71;40.74
68456;BME280;55437;55.046;38.838;2023-04-07T05:10:47;100878.69;;;9.95;40.23
68456;BME280;55437;55.046;38.838;2023-04-07T05:13:17;100881.63;;;10.33;39.69
68456;BME280;55437;55.046;38.838;2023-04-07T05:15:45;100881.28;;;10.56;39.12
68456;BME280;55437;55.046;38.838;2023-04-07T05:18:13;100876.09;;;10.61;38.82
68456;BME280;55437;55.046;38.838;2023-04-07T05:20:40;100873.34;;;10.71;38.62
68456;BME280;55437;55.046;38.838;2023-04-07T05:23:07;100876.78;;;11.21;38.39
68456;BME280;55437;55.046;38.838;2023-04-07T05:25:36;100873.75;;;11.45;37.82
68456;BME280;55437;55.046;38.838;2023-04-07T05:28:05;100875.50;;;11.88;37.27
68456;BME280;55437;55.046;38.838;2023-04-07T05:30:32;100885.25;;;12.14;36.41
68456;BME280;55437;55.046;38.838;2023-04-07T05:32:59;100883.63;;;12.47;36.00
68456;BME280;55437;55.046;38.838;2023-04-07T05:35:55;100876.88;;;13.12;35.37
68456;BME280;55437;55.046;38.838;2023-04-07T05:38:20;100883.88;;;13.74;34.83
68456;BME280;55437;55.046;38.838;2023-04-07T05:40:48;100891.78;;;13.97;33.99
68456;BME280;55437;55.046;38.838;2023-04-07T05:43:47;100885.31;;;14.41;32.95
68456;BME280;55437;55.046;38.838;2023-04-07T05:46:16;100889.75;;;14.64;32.76
68456;BME280;55437;55.046;38.838;2023-04-07T05:48:50;100878.19;;;15.27;31.90
68456;BME280;55437;55.046;38.838;2023-04-07T05:51:17;100885.78;;;15.81;31.16
68456;BME280;55437;55.046;38.838;2023-04-07T05:53:43;100881.59;;;16.22;30.43
68456;BME280;55437;55.046;38.838;2023-04-07T05:56:09;100887.53;;;16.26;30.30
68456;BME280;55437;55.046;38.838;2023-04-07T05:58:42;100883.91;;;16.51;29.51
68456;BME280;55437;55.046;38.838;2023-04-07T06:01:11;100888.31;;;16.71;29.45
68456;BME280;55437;55.046;38.838;2023-04-07T06:03:38;100896.81;;;16.53;29.29
68456;BME280;55437;55.046;38.838;2023-04-07T06:06:16;100897.13;;;16.89;28.75
68456;BME280;55437;55.046;38.838;2023-04-07T06:08:51;100888.09;;;16.98;28.90
68456;BME280;55437;55.046;38.838;2023-04-07T06:11:17;100890.63;;;17.19;28.52
68456;BME280;55437;55.046;38.838;2023-04-07T06:13:44;100894.34;;;17.14;28.23
68456;BME280;55437;55.046;38.838;2023-04-07T06:16:12;100895.50;;;17.47;27.66
68456;BME280;55437;55.046;38.838;2023-04-07T06:18:41;100896.19;;;17.71;27.64
68456;BME280;55437;55.046;38.838;2023-04-07T06:21:33;100894.03;;;18.18;27.05
68456;BME280;55437;55.046;38.838;2023-04-07T06:24:52;100897.56;;;18.17;26.98
68456;BME280;55437;55.046;38.838;2023-04-07T06:27:20;100900.97;;;17.80;27.08
68456;BME280;55437;55.046;38.838;2023-04-07T06:29:47;100911.41;;;17.99;27.14
68456;BME280;55437;55.046;38.838;2023-04-07T06:32:14;100904.41;;;17.99;26.68
68456;BME280;55437;55.046;38.838;2023-04-07T06:34:42;100907.63;;;17.67;26.81
68456;BME280;55437;55.046;38.838;2023-04-07T06:37:08;100900.59;;;18.08;26.20
68456;BME280;55437;55.046;38.838;2023-04-07T06:39:59;100908.75;;;18.55;26.17
68456;BME280;55437;55.046;38.838;2023-04-07T06:42:45;100897.88;;;18.47;25.76
68456;BME280;55437;55.046;38.838;2023-04-07T06:45:25;100899.72;;;18.45;25.83
68456;BME280;55437;55.046;38.838;2023-04-07T06:47:51;100898.34;;;18.55;25.82
68456;BME280;55437;55.046;38.838;2023-04-07T06:50:36;100903.75;;;18.69;25.56
68456;BME280;55437;55.046;38.838;2023-04-07T06:53:08;100914.56;;;18.06;25.81
68456;BME280;55437;55.046;38.838;2023-04-07T06:55:37;100904.00;;;18.27;25.53
68456;BME280;55437;55.046;38.838;2023-04-07T06:58:04;100910.56;;;17.98;25.35
68456;BME280;55437;55.046;38.838;2023-04-07T07:00:48;100911.66;;;17.74;25.38
68456;BME280;55437;55.046;38.838;2023-04-07T07:03:43;100906.81;;;17.85;25.26
68456;BME280;55437;55.046;38.838;2023-04-07T07:06:11;100907.63;;;17.47;25.82
68456;BME280;55437;55.046;38.838;2023-04-07T07:08:38;100922.56;;;17.21;26.15
68456;BME280;55437;55.046;38.838;2023-04-07T07:11:06;100934.38;;;17.28;26.10
68456;BME280;55437;55.046;38.838;2023-04-07T07:13:33;100918.28;;;17.20;26.34
68456;BME280;55437;55.046;38.838;2023-04-07T07:16:04;100923.66;;;17.56;26.11
68456;BME280;55437;55.046;38.838;2023-04-07T07:18:31;100925.34;;;17.57;25.59
68456;BME280;55437;55.046;38.838;2023-04-07T07:20:57;100912.69;;;17.70;25.54
68456;BME280;55437;55.046;38.838;2023-04-07T07:23:23;100918.41;;;17.58;25.67
68456;BME280;55437;55.046;38.838;2023-04-07T07:26:07;100914.13;;;17.37;25.90
68456;BME280;55437;55.046;38.838;2023-04-07T07:28:39;100916.69;;;17.77;25.55
68456;BME280;55437;55.046;38.838;2023-04-07T07:31:09;100914.81;;;17.40;26.01
68456;BME280;55437;55.046;38.838;2023-04-07T07:33:35;100921.41;;;17.88;25.50
68456;BME280;55437;55.046;38.838;2023-04-07T07:36:06;100915.00;;;17.76;24.91
68456;BME280;55437;55.046;38.838;2023-04-07T07:38:59;100920.50;;;17.50;24.92
68456;BME280;55437;55.046;38.838;2023-04-07T07:41:25;100924.28;;;17.82;24.60
68456;BME280;55437;55.046;38.838;2023-04-07T07:43:52;100917.81;;;17.51;24.94
68456;BME280;55437;55.046;38.838;2023-04-07T07:46:18;100914.56;;;16.85;25.59
68456;BME280;55437;55.046;38.838;2023-04-07T07:48:49;100929.25;;;16.41;25.36
68456;BME280;55437;55.046;38.838;2023-04-07T07:51:33;100913.56;;;16.44;25.54
68456;BME280;55437;55.046;38.838;2023-04-07T07:53:59;100905.38;;;16.10;25.70
68456;BME280;55437;55.046;38.838;2023-04-07T07:56:25;100908.94;;;16.07;25.42
68456;BME280;55437;55.046;38.838;2023-04-07T07:58:53;100919.34;;;16.29;25.44
68456;BME280;55437;55.046;38.838;2023-04-07T08:01:22;100913.22;;;15.62;25.67
68456;BME280;55437;55.046;38.838;2023-04-07T08:03:48;100920.34;;;15.80;25.87
68456;BME280;55437;55.046;38.838;2023-04-07T08:06:22;100915.41;;;15.72;25.49
68456;BME280;55437;55.046;38.838;2023-04-07T08:08:52;100926.25;;;15.59;25.97
68456;BME280;55437;55.046;38.838;2023-04-07T08:11:29;100916.09;;;15.28;26.43
68456;BME280;55437;55.046;38.838;2023-04-07T08:14:25;100912.84;;;15.46;26.27
68456;BME280;55437;55.046;38.838;2023-04-07T08:17:12;100904.16;;;15.48;26.34
68456;BME280;55437;55.046;38.838;2023-04-07T08:19:38;100915.19;;;15.04;26.91
68456;BME280;55437;55.046;38.838;2023-04-07T08:22:12;100907.94;;;15.13;26.74
68456;BME280;55437;55.046;38.838;2023-04-07T08:24:38;100894.13;;;15.39;26.52
68456;BME280;55437;55.046;38.838;2023-04-07T08:27:05;100894.13;;;15.39;26.42
68456;BME280;55437;55.046;38.838;2023-04-07T08:29:31;100902.84;;;15.37;26.38
68456;BME280;55437;55.046;38.838;2023-04-07T08:32:23;100893.56;;;15.31;26.39
68456;BME280;55437;55.046;38.838;2023-04-07T08:34:49;100901.34;;;14.78;26.46
68456;BME280;55437;55.046;38.838;2023-04-07T08:37:15;100898.00;;;14.49;26.76
68456;BME280;55437;55.046;38.838;2023-04-07T08:39:41;100907.28;;;13.97;27.10
68456;BME280;55437;55.046;38.838;2023-04-07T08:42:33;100898.41;;;13.76;27.32
68456;BME280;55437;55.046;38.838;2023-04-07T08:45:30;100918.16;;;13.46;27.65
68456;BME280;55437;55.046;38.838;2023-04-07T08:47:58;100896.75;;;13.09;27.90
68456;BME280;55437;55.046;38.838;2023-04-07T08:50:32;100896.09;;;13.01;28.55
68456;BME280;55437;55.046;38.838;2023-04-07T08:53:25;100898.50;;;13.07;28.55
68456;BME280;55437;55.046;38.838;2023-04-07T08:55:57;100903.69;;;12.71;28.89
68456;BME280;55437;55.046;38.838;2023-04-07T08:58:25;100892.00;;;12.56;29.48
68456;BME280;55437;55.046;38.838;2023-04-07T09:01:10;100906.50;;;12.60;29.02
68456;BME280;55437;55.046;38.838;2023-04-07T09:04:07;100896.66;;;12.78;28.70
68456;BME280;55437;55.046;38.838;2023-04-07T09:06:35;100907.88;;;12.75;29.21
68456;BME280;55437;55.046;38.838;2023-04-07T09:09:02;100903.03;;;12.63;29.57
68456;BME280;55437;55.046;38.838;2023-04-07T09:11:55;100910.63;;;12.31;30.24
68456;BME280;55437;55.046;38.838;2023-04-07T09:14:23;100909.44;;;12.07;30.03
68456;BME280;55437;55.046;38.838;2023-04-07T09:16:50;100905.28;;;12.00;29.91
68456;BME280;55437;55.046;38.838;2023-04-07T09:19:19;100892.06;;;12.16;29.75
68456;BME280;55437;55.046;38.838;2023-04-07T09:21:51;100899.59;;;12.25;29.76
68456;BME280;55437;55.046;38.838;2023-04-07T09:30:30;100907.81;;;12.01;29.81
68456;BME280;55437;55.046;38.838;2023-04-07T09:32:59;100895.66;;;12.08;29.88
68456;BME280;55437;55.046;38.838;2023-04-07T09:35:51;100895.50;;;12.15;29.72
68456;BME280;55437;55.046;38.838;2023-04-07T09:38:49;100915.22;;;12.18;30.00
68456;BME280;55437;55.046;38.838;2023-04-07T09:41:20;100912.94;;;12.03;29.84
68456;BME280;55437;55.046;38.838;2023-04-07T09:44:12;100908.63;;;12.05;29.53
68456;BME280;55437;55.046;38.838;2023-04-07T09:46:52;100911.22;;;12.03;29.22
68456;BME280;55437;55.046;38.838;2023-04-07T09:49:21;100900.31;;;11.92;29.47
68456;BME280;55437;55.046;38.838;2023-04-07T09:52:06;100901.72;;;12.07;29.20
68456;BME280;55437;55.046;38.838;2023-04-07T09:54:38;100903.56;;;12.00;29.63
68456;BME280;55437;55.046;38.838;2023-04-07T09:57:06;100907.84;;;12.00;29.81
68456;BME280;55437;55.046;38.838;2023-04-07T09:59:35;100914.19;;;11.83;30.17
68456;BME280;55437;55.046;38.838;2023-04-07T10:02:03;100908.31;;;11.77;30.31
68456;BME280;55437;55.046;38.838;2023-04-07T10:04:54;100900.50;;;11.83;30.04
68456;BME280;55437;55.046;38.838;2023-04-07T10:07:21;100900.59;;;11.77;30.80
68456;BME280;55437;55.046;38.838;2023-04-07T10:09:47;100906.56;;;11.79;30.57
68456;BME280;55437;55.046;38.838;2023-04-07T10:12:14;100908.72;;;11.54;30.71
68456;BME280;55437;55.046;38.838;2023-04-07T10:14:40;100883.88;;;11.53;31.14
68456;BME280;55437;55.046;38.838;2023-04-07T10:17:17;100894.59;;;11.75;31.10
68456;BME280;55437;55.046;38.838;2023-04-07T10:20:11;100890.00;;;11.92;31.26
68456;BME280;55437;55.046;38.838;2023-04-07T10:22:40;100889.63;;;12.09;31.00
68456;BME280;55437;55.046;38.838;2023-04-07T10:25:11;100891.94;;;12.21;30.70
68456;BME280;55437;55.046;38.838;2023-04-07T10:30:24;100909.69;;;11.95;30.72
68456;BME280;55437;55.046;38.838;2023-04-07T10:33:15;100892.94;;;11.72;31.19
68456;BME280;55437;55.046;38.838;2023-04-07T10:36:05;100888.59;;;11.77;31.30
68456;BME280;55437;55.046;38.838;2023-04-07T10:41:41;100893.69;;;11.80;31.02
68456;BME280;55437;55.046;38.838;2023-04-07T10:44:09;100880.91;;;11.73;31.81
68456;BME280;55437;55.046;38.838;2023-04-07T10:52:39;100881.31;;;11.96;31.71
68456;BME280;55437;55.046;38.838;2023-04-07T10:55:29;100889.28;;;11.84;31.61
68456;BME280;55437;55.046;38.838;2023-04-07T11:01:42;100887.88;;;11.69;32.18
68456;BME280;55437;55.046;38.838;2023-04-07T11:04:08;100896.44;;;11.70;32.30
68456;BME280;55437;55.046;38.838;2023-04-07T11:06:34;100892.91;;;11.75;32.36
68456;BME280;55437;55.046;38.838;2023-04-07T11:09:01;100899.75;;;11.76;32.00
68456;BME280;55437;55.046;38.838;2023-04-07T11:11:39;100898.03;;;11.74;32.40
68456;BME280;55437;55.046;38.838;2023-04-07T11:14:08;100890.44;;;11.69;31.99
68456;BME280;55437;55.046;38.838;2023-04-07T11:16:40;100891.19;;;11.73;32.11
68456;BME280;55437;55.046;38.838;2023-04-07T11:19:11;100880.06;;;11.72;32.33
68456;BME280;55437;55.046;38.838;2023-04-07T11:21:38;100886.88;;;11.78;32.64
68456;BME280;55437;55.046;38.838;2023-04-07T11:24:35;100909.44;;;11.61;32.35
68456;BME280;55437;55.046;38.838;2023-04-07T11:27:15;100887.84;;;11.71;32.19
68456;BME280;55437;55.046;38.838;2023-04-07T11:29:50;100876.53;;;11.79;32.31
68456;BME280;55437;55.046;38.838;2023-04-07T11:32:22;100882.50;;;11.81;32.46
68456;BME280;55437;55.046;38.838;2023-04-07T11:35:22;100894.44;;;11.84;32.40
68456;BME280;55437;55.046;38.838;2023-04-07T11:37:56;100891.78;;;11.88;32.45
68456;BME280;55437;55.046;38.838;2023-04-07T11:40:49;100880.69;;;11.85;31.95
68456;BME280;55437;55.046;38.838;2023-04-07T11:43:26;100874.06;;;11.72;32.24
68456;BME280;55437;55.046;38.838;2023-04-07T11:46:08;100880.91;;;11.73;32.35
68456;BME280;55437;55.046;38.838;2023-04-07T11:48:36;100882.59;;;11.74;31.85
68456;BME280;55437;55.046;38.838;2023-04-07T11:51:04;100891.34;;;11.67;32.07
68456;BME280;55437;55.046;38.838;2023-04-07T11:53:34;100896.38;;;11.71;32.01
68456;BME280;55437;55.046;38.838;2023-04-07T11:56:11;100887.16;;;11.61;31.84
68456;BME280;55437;55.046;38.838;2023-04-07T11:58:49;100888.66;;;11.71;32.21
68456;BME280;55437;55.046;38.838;2023-04-07T12:01:22;100872.34;;;11.72;32.41
68456;BME280;55437;55.046;38.838;2023-04-07T12:04:02;100873.81;;;11.87;32.19
68456;BME280;55437;55.046;38.838;2023-04-07T12:06:35;100878.22;;;11.82;32.33
68456;BME280;55437;55.046;38.838;2023-04-07T12:09:04;100865.44;;;11.77;32.12
68456;BME280;55437;55.046;38.838;2023-04-07T12:11:57;100878.28;;;11.77;31.89
68456;BME280;55437;55.046;38.838;2023-04-07T12:14:49;100879.81;;;11.86;31.49
68456;BME280;55437;55.046;38.838;2023-04-07T12:17:27;100878.88;;;11.90;31.74
68456;BME280;55437;55.046;38.838;2023-04-07T12:19:53;100872.72;;;11.97;31.63
68456;BME280;55437;55.046;38.838;2023-04-07T12:22:23;100872.84;;;11.93;31.59
68456;BME280;55437;55.046;38.838;2023-04-07T12:24:58;100889.28;;;11.84;31.51
68456;BME280;55437;55.046;38.838;2023-04-07T12:27:24;100875.63;;;11.82;31.42
68456;BME280;55437;55.046;38.838;2023-04-07T12:29:59;100870.59;;;11.76;31.59
68456;BME280;55437;55.046;38.838;2023-04-07T12:32:51;100880.88;;;11.76;31.62
68456;BME280;55437;55.046;38.838;2023-04-07T12:35:17;100887.50;;;11.87;31.56
68456;BME280;55437;55.046;38.838;2023-04-07T12:37:43;100875.78;;;11.71;31.24
68456;BME280;55437;55.046;38.838;2023-04-07T12:40:37;100875.75;;;11.76;31.39
68456;BME280;55437;55.046;38.838;2023-04-07T12:43:54;100889.50;;;11.72;31.47
68456;BME280;55437;55.046;38.838;2023-04-07T12:46:22;100865.56;;;11.70;31.43
68456;BME280;55437;55.046;38.838;2023-04-07T12:48:54;100870.56;;;11.77;31.48
68456;BME280;55437;55.046;38.838;2023-04-07T12:51:21;100877.63;;;11.66;31.33
68456;BME280;55437;55.046;38.838;2023-04-07T12:53:50;100866.34;;;11.72;31.77
68456;BME280;55437;55.046;38.838;2023-04-07T12:56:17;100865.34;;;11.82;31.31
68456;BME280;55437;55.046;38.838;2023-04-07T12:59:09;100867.03;;;11.83;31.15
68456;BME280;55437;55.046;38.838;2023-04-07T13:01:35;100875.69;;;11.79;31.13
68456;BME280;55437;55.046;38.838;2023-04-07T13:04:02;100865.09;;;11.94;30.97
68456;BME280;55437;55.046;38.838;2023-04-07T13:06:36;100871.88;;;11.97;31.21
68456;BME280;55437;55.046;38.838;2023-04-07T13:09:03;100864.94;;;12.00;30.75
68456;BME280;55437;55.046;38.838;2023-04-07T13:11:29;100865.56;;;12.11;30.53
68456;BME280;55437;55.046;38.838;2023-04-07T13:13:54;100872.63;;;12.02;30.72
68456;BME280;55437;55.046;38.838;2023-04-07T13:17:12;100874.50;;;11.95;30.39
68456;BME280;55437;55.046;38.838;2023-04-07T13:20:06;100879.72;;;11.92;30.61
68456;BME280;55437;55.046;38.838;2023-04-07T13:22:32;100868.53;;;11.93;30.46
68456;BME280;55437;55.046;38.838;2023-04-07T13:24:58;100871.97;;;11.94;30.65
68456;BME280;55437;55.046;38.838;2023-04-07T13:27:24;100873.44;;;12.05;30.29
68456;BME280;55437;55.046;38.838;2023-04-07T13:29:50;100876.00;;;12.05;30.72
68456;BME280;55437;55.046;38.838;2023-04-07T13:32:17;100870.94;;;12.01;30.45
68456;BME280;55437;55.046;38.838;2023-04-07T13:34:44;100873.78;;;11.88;30.12
68456;BME280;55437;55.046;38.838;2023-04-07T13:40:23;100870.34;;;11.88;29.76
68456;BME280;55437;55.046;38.838;2023-04-07T13:42:57;100858.28;;;11.92;30.04
68456;BME280;55437;55.046;38.838;2023-04-07T13:45:25;100866.84;;;11.92;29.91
68456;BME280;55437;55.046;38.838;2023-04-07T13:47:55;100874.44;;;11.97;30.03
68456;BME280;55437;55.046;38.838;2023-04-07T13:50:22;100864.22;;;11.95;30.27